首页
METAR-TAF:

METAR-TAF

机场 :

奧爾德尼島,

纬度: 49-43N, 经度: 002-12W, 海拔: 71米

当前天气观测

该预报发布于21分钟前的14:20 UTC
风速20节,风向西转西南
温度 11°C
湿度 100%
气压 1022 hPa
能見度: 0500
多云层低于100英尺
小毛毛雨, 雾

METAR: EGJA 231420Z 25020KT 0500 R26/0600 -DZ FG BKN000 11/11 Q1022

时间: 14:41 (14:41 UTC)

预报

该预报发布于35分钟前的14:06 UTC
预报有效从23日的 15点(UTC)到 24日的 00点(UTC)
风速20节,风向西转西南,有时为30节阵风
能見度: 0400
多云层低于100英尺
小毛毛雨, 雾
几率 40% :
短暂存在
从 23日的 15点(UTC)到 24日的 00点(UTC)
能見度: 1500
多云层高于200英尺
轻雾
成为
从 23日的 17点(UTC)到 23日的 19点(UTC)
风速10节,风向西
几率 30% :
短暂存在
从 23日的 18点(UTC)到 23日的 22点(UTC)
能見度: 8000
多云层高于300英尺

TAF: EGJA 231406Z 2315/2400 25020G30KT 0400 -DZ FG BKN000 PROB40 TEMPO 2315/2400 1500 BR BKN002 BECMG 2317/2319 26010KT PROB30 TEMPO 2318/2322 8000 NSW BKN003

超过4000个机场的气象观测和天气预报(METAR&TAF报告)。

可查询的气象台以黄色和红色小点在地图上表示。

将鼠标移到小点上方,可查看气象台名称。

然后点击查看天气观测和预报。

如需切换地图:点击带黑十字的绿色按钮放大地图;点击带横线的绿色按钮缩小地图;或者点击绿色箭头查看邻近地区的地图。


METAR-TAF: